createdAt,value
2023-02-16T00:02:19.033Z,90.59
2023-02-16T00:05:27.614Z,91.10
2023-02-16T00:08:30.160Z,91.99
2023-02-16T00:11:53.466Z,91.12
2023-02-16T00:14:56.052Z,90.17
2023-02-16T00:18:00.739Z,90.05
2023-02-16T00:21:03.373Z,89.63
2023-02-16T00:24:06.610Z,89.68
2023-02-16T00:27:14.300Z,89.93
2023-02-16T00:30:19.801Z,90.68
2023-02-16T00:33:25.368Z,91.18
2023-02-16T00:36:27.912Z,90.96
2023-02-16T00:39:30.893Z,90.96
2023-02-16T00:42:36.435Z,90.95
2023-02-16T00:45:41.483Z,90.84
2023-02-16T00:48:45.277Z,90.72
2023-02-16T00:51:48.993Z,89.92
2023-02-16T00:54:51.563Z,89.68
2023-02-16T00:57:58.780Z,89.41
2023-02-16T01:01:03.722Z,90.00
2023-02-16T01:04:07.716Z,90.10
2023-02-16T01:07:33.596Z,90.02
2023-02-16T01:10:56.396Z,90.31
2023-02-16T01:13:59.142Z,90.67
2023-02-16T01:17:01.746Z,89.85
2023-02-16T01:20:05.560Z,90.67
2023-02-16T01:23:09.665Z,90.69
2023-02-16T01:26:15.057Z,90.52
2023-02-16T01:29:20.322Z,91.11
2023-02-16T01:32:25.514Z,89.95
2023-02-16T01:35:32.458Z,90.93
2023-02-16T01:38:35.190Z,90.71
2023-02-16T01:41:43.686Z,91.41
2023-02-16T01:44:57.120Z,90.26
2023-02-16T01:48:06.029Z,90.46
2023-02-16T01:51:17.475Z,90.19
2023-02-16T01:54:40.767Z,90.55
2023-02-16T01:57:45.428Z,90.27
2023-02-16T02:00:57.410Z,89.86
2023-02-16T02:04:23.403Z,89.01
2023-02-16T02:07:38.031Z,89.78
2023-02-16T02:11:08.666Z,91.61
2023-02-16T02:14:33.649Z,92.87
2023-02-16T02:17:37.710Z,92.47
2023-02-16T02:21:23.340Z,90.78
2023-02-16T02:24:58.740Z,90.96
2023-02-16T02:28:15.523Z,90.14
2023-02-16T02:31:59.340Z,90.38
2023-02-16T02:35:23.798Z,89.49
2023-02-16T02:38:52.286Z,89.22
2023-02-16T02:42:05.284Z,89.23
2023-02-16T02:45:24.377Z,88.91
2023-02-16T02:48:34.999Z,88.94
2023-02-16T02:51:40.590Z,89.53
2023-02-16T02:55:05.856Z,89.26
2023-02-16T02:58:31.445Z,89.30
2023-02-16T03:01:37.060Z,89.31
2023-02-16T03:04:39.921Z,89.20
2023-02-16T03:07:47.425Z,89.24
2023-02-16T03:11:16.906Z,89.15
2023-02-16T03:14:27.128Z,89.93
2023-02-16T03:17:54.498Z,88.88
2023-02-16T03:21:19.206Z,88.32
2023-02-16T03:24:51.598Z,88.14
2023-02-16T03:28:14.868Z,88.47
2023-02-16T03:31:22.471Z,88.30
2023-02-16T03:34:25.674Z,89.42
2023-02-16T03:37:28.326Z,90.32
2023-02-16T03:40:35.388Z,89.63
2023-02-16T03:43:38.007Z,90.19
2023-02-16T03:46:40.428Z,90.70
2023-02-16T03:49:42.958Z,90.71
2023-02-16T03:52:45.646Z,92.32
2023-02-16T03:55:49.259Z,91.55
2023-02-16T03:58:52.025Z,91.85
2023-02-16T04:01:55.479Z,91.76
2023-02-16T04:04:58.776Z,91.14
2023-02-16T04:08:01.496Z,90.54
2023-02-16T04:11:24.183Z,89.82
2023-02-16T04:14:26.944Z,90.03
2023-02-16T04:17:29.548Z,89.48
2023-02-16T04:20:33.602Z,89.55
2023-02-16T04:23:36.298Z,89.80
2023-02-16T04:26:39.018Z,89.89
2023-02-16T04:29:41.796Z,90.56
2023-02-16T04:32:44.693Z,91.30
2023-02-16T04:35:47.320Z,90.84
2023-02-16T04:38:50.091Z,90.24
2023-02-16T04:41:52.669Z,89.99
2023-02-16T04:44:55.287Z,91.15
2023-02-16T04:47:57.840Z,91.55
2023-02-16T04:51:00.716Z,91.54
2023-02-16T04:54:03.545Z,91.40
2023-02-16T04:57:06.271Z,90.67
2023-02-16T05:00:10.150Z,91.29
2023-02-16T05:03:12.779Z,91.07
2023-02-16T05:06:15.597Z,91.30
2023-02-16T05:09:18.144Z,91.06
2023-02-16T05:12:39.409Z,90.34
2023-02-16T05:15:42.307Z,91.00
2023-02-16T05:18:45.221Z,91.48
2023-02-16T05:21:47.884Z,91.94
2023-02-16T05:24:51.204Z,91.73
2023-02-16T05:27:54.727Z,91.55
2023-02-16T05:30:57.948Z,90.70
2023-02-16T05:34:00.811Z,91.07
2023-02-16T05:37:03.515Z,90.53
2023-02-16T05:40:06.826Z,90.11
2023-02-16T05:43:09.454Z,90.16
2023-02-16T05:46:12.514Z,90.51
2023-02-16T05:49:16.226Z,90.45
2023-02-16T05:52:19.134Z,90.78
2023-02-16T05:55:21.769Z,91.37
2023-02-16T05:58:24.483Z,91.14
2023-02-16T06:01:28.581Z,91.14
2023-02-16T06:04:32.836Z,91.09
2023-02-16T06:07:35.608Z,90.62
2023-02-16T06:10:38.170Z,91.12
2023-02-16T06:13:41.176Z,90.17
2023-02-16T06:16:45.769Z,90.17
2023-02-16T06:19:48.681Z,90.71
2023-02-16T06:22:51.484Z,90.87
2023-02-16T06:25:54.492Z,89.81
2023-02-16T06:28:57.552Z,90.59
2023-02-16T06:32:00.517Z,90.20
2023-02-16T06:35:03.447Z,89.56
2023-02-16T06:38:06.187Z,89.64
2023-02-16T06:41:09.566Z,90.36
2023-02-16T06:44:16.404Z,90.30
2023-02-16T06:47:19.304Z,90.31
2023-02-16T06:50:22.068Z,89.99
2023-02-16T06:53:25.951Z,90.13
2023-02-16T06:56:28.507Z,90.43
2023-02-16T06:59:31.556Z,90.14
2023-02-16T07:02:35.959Z,89.85
2023-02-16T07:05:38.832Z,90.01
2023-02-16T07:08:41.444Z,89.49
2023-02-16T07:11:44.586Z,89.93
2023-02-16T07:14:47.705Z,90.48
2023-02-16T07:17:50.561Z,90.07
2023-02-16T07:20:53.634Z,90.63
2023-02-16T07:23:56.284Z,90.38
2023-02-16T07:26:59.276Z,90.39
2023-02-16T07:30:02.129Z,90.76
2023-02-16T07:33:06.105Z,89.13
2023-02-16T07:36:10.348Z,90.12
2023-02-16T07:39:13.038Z,90.15
2023-02-16T07:42:16.203Z,89.42
2023-02-16T07:45:23.508Z,89.50
2023-02-16T07:48:26.439Z,89.49
2023-02-16T07:51:31.759Z,88.99
2023-02-16T07:54:34.514Z,89.03
2023-02-16T07:57:39.286Z,89.25
2023-02-16T08:00:42.230Z,88.55
2023-02-16T08:03:44.881Z,89.00
2023-02-16T08:06:48.946Z,89.26
2023-02-16T08:09:51.634Z,88.01
2023-02-16T08:12:54.792Z,87.51
2023-02-16T08:15:57.426Z,85.34
2023-02-16T08:19:01.303Z,86.51
2023-02-16T08:22:07.021Z,85.87
2023-02-16T08:25:10.003Z,85.99
2023-02-16T08:28:15.196Z,84.84
2023-02-16T08:31:21.020Z,84.90
2023-02-16T08:34:24.610Z,85.43
2023-02-16T08:37:27.414Z,84.78
2023-02-16T08:40:30.240Z,83.14
2023-02-16T08:43:33.029Z,82.32
2023-02-16T08:46:37.426Z,83.18
2023-02-16T08:49:40.774Z,82.74
2023-02-16T08:52:43.509Z,82.92
2023-02-16T08:55:52.514Z,82.94
2023-02-16T08:58:55.220Z,82.94
2023-02-16T09:01:59.350Z,82.18
2023-02-16T09:05:01.990Z,82.27
2023-02-16T09:08:05.524Z,82.48
2023-02-16T09:11:11.597Z,81.30
2023-02-16T09:14:15.732Z,82.30
2023-02-16T09:17:18.573Z,81.39
2023-02-16T09:20:21.799Z,81.75
2023-02-16T09:23:24.378Z,80.73
2023-02-16T09:26:29.662Z,80.37
2023-02-16T09:29:32.409Z,79.67
2023-02-16T09:32:35.435Z,78.94
2023-02-16T09:35:41.702Z,79.64
2023-02-16T09:38:44.916Z,78.68
2023-02-16T09:42:09.342Z,80.69
2023-02-16T09:45:14.533Z,80.03
2023-02-16T09:48:24.159Z,80.69
2023-02-16T09:51:36.019Z,79.95
2023-02-16T09:54:58.200Z,79.73
2023-02-16T09:58:16.162Z,78.44
2023-02-16T10:01:40.441Z,79.20
2023-02-16T10:05:04.990Z,79.87
2023-02-16T10:08:13.537Z,79.12
2023-02-16T10:11:40.995Z,79.55
2023-02-16T10:14:50.323Z,78.68
2023-02-16T10:18:00.353Z,78.87
2023-02-16T10:21:09.107Z,78.45
2023-02-16T10:24:12.833Z,78.71
2023-02-16T10:27:17.385Z,78.36
2023-02-16T10:30:22.750Z,76.73
2023-02-16T10:33:34.454Z,76.36
2023-02-16T10:37:13.628Z,76.69
2023-02-16T10:40:32.038Z,77.24
2023-02-16T10:43:48.595Z,77.56
2023-02-16T10:47:02.046Z,76.82
2023-02-16T10:50:07.397Z,76.87
2023-02-16T10:53:15.012Z,76.74
2023-02-16T10:56:42.126Z,77.59
2023-02-16T10:59:46.361Z,75.67
2023-02-16T11:02:52.870Z,75.99
2023-02-16T11:05:56.110Z,75.10
2023-02-16T11:09:01.564Z,75.42
2023-02-16T11:12:23.125Z,75.31
2023-02-16T11:15:27.381Z,76.00
2023-02-16T11:18:36.904Z,75.03
2023-02-16T11:21:44.601Z,75.18
2023-02-16T11:24:47.750Z,74.44
2023-02-16T11:27:56.320Z,73.83
2023-02-16T11:31:20.904Z,74.09
2023-02-16T11:34:31.727Z,72.94
2023-02-16T11:37:34.582Z,73.33
2023-02-16T11:40:38.743Z,72.69
2023-02-16T11:43:42.620Z,72.25
2023-02-16T11:46:45.960Z,71.16
2023-02-16T11:49:50.648Z,72.32
2023-02-16T11:52:58.670Z,72.95
2023-02-16T11:56:24.125Z,72.13
2023-02-16T11:59:27.549Z,71.77
2023-02-16T12:03:00.761Z,71.75
2023-02-16T12:06:08.289Z,73.53
2023-02-16T12:09:20.303Z,73.11
2023-02-16T12:12:34.375Z,72.44
2023-02-16T12:16:08.290Z,72.22
2023-02-16T12:19:17.654Z,72.09
2023-02-16T12:22:48.126Z,72.84
2023-02-16T12:26:33.398Z,72.05
2023-02-16T12:30:10.354Z,71.60
2023-02-16T12:33:19.008Z,71.80
2023-02-16T12:36:39.632Z,71.54
2023-02-16T12:40:13.618Z,72.31
2023-02-16T12:43:38.489Z,70.65
2023-02-16T12:46:49.161Z,71.51
2023-02-16T12:50:01.822Z,71.95
2023-02-16T12:53:14.682Z,71.42
2023-02-16T12:56:22.068Z,70.79
2023-02-16T12:59:43.415Z,71.09
2023-02-16T13:03:14.535Z,70.15
2023-02-16T13:06:34.112Z,70.74
2023-02-16T13:09:46.896Z,71.10
2023-02-16T13:13:01.289Z,71.11
2023-02-16T13:16:28.900Z,69.98
2023-02-16T13:19:32.955Z,70.80
2023-02-16T13:22:51.248Z,69.48
2023-02-16T13:26:11.375Z,70.63
2023-02-16T13:29:41.909Z,70.40
2023-02-16T13:32:54.437Z,70.67
2023-02-16T13:36:07.869Z,72.48
2023-02-16T13:39:24.098Z,72.01
2023-02-16T13:42:50.495Z,72.97
2023-02-16T13:45:55.113Z,72.30
2023-02-16T13:48:57.998Z,72.65
2023-02-16T13:52:01.093Z,71.46
2023-02-16T13:55:08.566Z,72.13
2023-02-16T13:58:14.368Z,71.50
2023-02-16T14:01:32.486Z,71.44
2023-02-16T14:04:35.942Z,73.06
2023-02-16T14:07:38.686Z,72.92
2023-02-16T14:10:53.660Z,72.29
2023-02-16T14:13:56.876Z,72.88
2023-02-16T14:17:15.285Z,74.11
2023-02-16T14:20:18.497Z,73.02
2023-02-16T14:23:29.591Z,73.23
2023-02-16T14:26:33.592Z,73.70
2023-02-16T14:29:59.814Z,73.89
2023-02-16T14:33:16.410Z,73.33
2023-02-16T14:36:27.312Z,73.75
2023-02-16T14:39:30.803Z,73.90
2023-02-16T14:42:35.258Z,74.44
2023-02-16T14:45:48.941Z,74.07
2023-02-16T14:49:24.663Z,74.22
2023-02-16T14:52:41.067Z,73.87
2023-02-16T14:56:17.292Z,74.19
2023-02-16T14:59:38.733Z,74.46
2023-02-16T15:02:55.814Z,74.61
2023-02-16T15:05:59.498Z,75.67
2023-02-16T15:09:07.242Z,75.58
2023-02-16T15:12:22.742Z,75.76
2023-02-16T15:15:33.173Z,76.13
2023-02-16T15:18:46.903Z,76.58
2023-02-16T15:22:11.362Z,76.95
2023-02-16T15:25:31.061Z,76.70
2023-02-16T15:28:40.038Z,76.85
2023-02-16T15:31:44.878Z,76.88
2023-02-16T15:34:50.815Z,77.62
2023-02-16T15:38:01.684Z,78.79
2023-02-16T15:41:16.679Z,78.88
2023-02-16T15:44:39.552Z,79.98
2023-02-16T15:47:45.882Z,80.47
2023-02-16T15:50:51.202Z,80.55
2023-02-16T15:54:04.540Z,80.30
2023-02-16T15:57:31.413Z,80.93
2023-02-16T16:00:34.571Z,81.84
2023-02-16T16:03:37.455Z,81.68
2023-02-16T16:06:41.112Z,81.70
2023-02-16T16:09:46.030Z,81.93
2023-02-16T16:12:49.942Z,81.94
2023-02-16T16:15:54.594Z,82.04
2023-02-16T16:19:06.835Z,82.38
2023-02-16T16:22:37.224Z,81.96
2023-02-16T16:25:48.826Z,82.14
2023-02-16T16:28:52.871Z,82.94
2023-02-16T16:31:56.941Z,82.38
2023-02-16T16:35:00.651Z,82.77
2023-02-16T16:38:04.056Z,82.78
2023-02-16T16:41:07.225Z,84.36
2023-02-16T16:44:28.548Z,83.36
2023-02-16T16:47:41.457Z,82.27
2023-02-16T16:50:44.525Z,83.05
2023-02-16T16:53:53.751Z,82.45
2023-02-16T16:56:57.234Z,82.97
2023-02-16T17:00:00.158Z,83.27
2023-02-16T17:03:05.161Z,83.27
2023-02-16T17:06:08.965Z,83.86
2023-02-16T17:09:12.022Z,83.74
2023-02-16T17:12:15.378Z,83.61
2023-02-16T17:15:46.103Z,83.14
2023-02-16T17:18:49.289Z,83.63
2023-02-16T17:21:52.198Z,83.85
2023-02-16T17:24:56.270Z,83.76
2023-02-16T17:27:59.799Z,82.82
2023-02-16T17:31:07.870Z,83.07
2023-02-16T17:34:10.775Z,83.49
2023-02-16T17:37:14.480Z,83.39
2023-02-16T17:40:22.041Z,83.49
2023-02-16T17:43:28.756Z,84.12
2023-02-16T17:46:33.112Z,83.69
2023-02-16T17:49:36.424Z,85.43
2023-02-16T17:52:40.814Z,85.15
2023-02-16T17:55:45.129Z,84.47
2023-02-16T17:58:48.566Z,86.07
2023-02-16T18:01:52.034Z,86.75
2023-02-16T18:04:56.372Z,85.45
2023-02-16T18:07:59.739Z,83.41
2023-02-16T18:11:03.420Z,84.24
2023-02-16T18:14:06.771Z,85.49
2023-02-16T18:17:12.389Z,85.80
2023-02-16T18:20:16.874Z,86.80
2023-02-16T18:23:21.186Z,86.75
2023-02-16T18:26:24.419Z,85.51
2023-02-16T18:29:28.139Z,86.04
2023-02-16T18:32:32.207Z,85.90
2023-02-16T18:35:35.332Z,86.95
2023-02-16T18:38:40.354Z,87.00
2023-02-16T18:41:43.612Z,87.33
2023-02-16T18:44:49.513Z,87.44
2023-02-16T18:47:52.906Z,87.22
2023-02-16T18:50:56.008Z,88.27
2023-02-16T18:53:59.746Z,89.27
2023-02-16T18:57:02.862Z,89.40
2023-02-16T19:00:07.362Z,88.67
2023-02-16T19:03:10.794Z,87.35
2023-02-16T19:06:14.385Z,87.35
2023-02-16T19:09:18.397Z,87.85
2023-02-16T19:12:22.288Z,87.35
2023-02-16T19:15:25.709Z,87.84
2023-02-16T19:18:32.583Z,87.98
2023-02-16T19:21:39.442Z,87.10
2023-02-16T19:24:43.473Z,86.90
2023-02-16T19:27:47.390Z,86.08
2023-02-16T19:30:50.558Z,88.74
2023-02-16T19:33:53.622Z,88.01
2023-02-16T19:36:56.570Z,87.56
2023-02-16T19:39:59.490Z,85.81
2023-02-16T19:43:02.871Z,86.56
2023-02-16T19:46:06.999Z,88.58
2023-02-16T19:49:14.646Z,87.72
2023-02-16T19:52:28.066Z,87.43
2023-02-16T19:55:32.876Z,86.62
2023-02-16T19:58:36.157Z,87.65
2023-02-16T20:01:39.958Z,87.34
2023-02-16T20:04:44.443Z,88.18
2023-02-16T20:07:48.393Z,87.60
2023-02-16T20:10:51.715Z,87.18
2023-02-16T20:13:57.032Z,88.62
2023-02-16T20:17:00.690Z,89.27
2023-02-16T20:20:06.120Z,89.32
2023-02-16T20:23:08.959Z,88.99
2023-02-16T20:26:21.652Z,89.18
2023-02-16T20:29:25.057Z,89.72
2023-02-16T20:32:28.655Z,88.27
2023-02-16T20:35:32.239Z,89.78
2023-02-16T20:38:36.107Z,88.23
2023-02-16T20:41:40.097Z,89.62
2023-02-16T20:44:43.555Z,91.10
2023-02-16T20:47:47.642Z,88.75
2023-02-16T20:51:00.975Z,89.33
2023-02-16T20:54:04.895Z,89.85
2023-02-16T20:57:21.379Z,88.57
2023-02-16T21:00:30.018Z,89.30
2023-02-16T21:03:33.132Z,89.76
2023-02-16T21:06:37.865Z,90.17
2023-02-16T21:09:42.905Z,90.84
2023-02-16T21:12:47.571Z,90.22
2023-02-16T21:15:50.981Z,90.77
2023-02-16T21:18:53.899Z,91.28
2023-02-16T21:21:56.829Z,90.82
2023-02-16T21:24:59.937Z,90.06
2023-02-16T21:28:03.559Z,90.09
2023-02-16T21:31:09.291Z,90.59
2023-02-16T21:34:12.841Z,90.90
2023-02-16T21:37:16.742Z,89.72
2023-02-16T21:40:38.650Z,91.14
2023-02-16T21:43:41.540Z,91.84
2023-02-16T21:46:47.289Z,91.35
2023-02-16T21:49:50.087Z,90.14
2023-02-16T21:52:53.530Z,90.56
2023-02-16T21:56:28.510Z,91.54
2023-02-16T21:59:31.992Z,91.74
2023-02-16T22:02:34.647Z,89.92
2023-02-16T22:05:37.774Z,92.26
2023-02-16T22:08:41.717Z,90.51
2023-02-16T22:11:44.913Z,91.89
2023-02-16T22:14:47.971Z,90.93
2023-02-16T22:17:50.990Z,90.54
2023-02-16T22:20:53.750Z,90.05
2023-02-16T22:23:57.405Z,88.64
2023-02-16T22:27:00.466Z,88.95
2023-02-16T22:30:03.799Z,89.18
2023-02-16T22:33:06.962Z,89.56
2023-02-16T22:36:14.070Z,90.49
2023-02-16T22:39:17.727Z,90.57
2023-02-16T22:42:20.659Z,92.82
2023-02-16T22:45:24.141Z,92.63
2023-02-16T22:48:26.976Z,93.09
2023-02-16T22:51:31.745Z,93.14
2023-02-16T22:54:34.626Z,91.93
2023-02-16T22:57:38.267Z,93.30
2023-02-16T23:00:41.024Z,94.43
2023-02-16T23:03:58.649Z,92.91
2023-02-16T23:07:01.556Z,92.14
2023-02-16T23:10:04.758Z,92.62
2023-02-16T23:13:09.439Z,91.94
2023-02-16T23:16:14.894Z,92.18
2023-02-16T23:19:20.247Z,92.32
2023-02-16T23:22:22.988Z,94.81
2023-02-16T23:25:34.658Z,96.62
2023-02-16T23:28:39.143Z,97.58
2023-02-16T23:31:43.338Z,97.99
2023-02-16T23:34:46.447Z,97.87
2023-02-16T23:37:49.021Z,98.39
2023-02-16T23:40:58.139Z,98.05
2023-02-16T23:44:01.346Z,97.55
2023-02-16T23:47:04.363Z,97.99
2023-02-16T23:50:07.344Z,98.76
2023-02-16T23:53:10.528Z,98.46
2023-02-16T23:56:16.626Z,98.92
2023-02-16T23:59:19.655Z,98.90
